sensor_id;sensor_type;location;lat;lon;timestamp;P1;durP1;ratioP1;P2;durP2;ratioP2
13866;SDS011;7003;46.982;15.248;2023-02-01T00:01:15;7.47;;;2.33;;
13866;SDS011;7003;46.982;15.248;2023-02-01T00:03:44;7.67;;;2.87;;
13866;SDS011;7003;46.982;15.248;2023-02-01T00:06:15;6.03;;;2.57;;
13866;SDS011;7003;46.982;15.248;2023-02-01T00:08:45;5.57;;;3.17;;
13866;SDS011;7003;46.982;15.248;2023-02-01T00:11:18;5.43;;;2.03;;
13866;SDS011;7003;46.982;15.248;2023-02-01T00:13:48;5.30;;;3.17;;
13866;SDS011;7003;46.982;15.248;2023-02-01T00:16:17;2.40;;;1.87;;
13866;SDS011;7003;46.982;15.248;2023-02-01T00:18:46;3.07;;;2.77;;
13866;SDS011;7003;46.982;15.248;2023-02-01T00:21:20;4.83;;;2.80;;
13866;SDS011;7003;46.982;15.248;2023-02-01T00:23:47;4.60;;;2.87;;
13866;SDS011;7003;46.982;15.248;2023-02-01T00:26:18;7.07;;;3.53;;
13866;SDS011;7003;46.982;15.248;2023-02-01T00:28:49;4.37;;;3.97;;
13866;SDS011;7003;46.982;15.248;2023-02-01T00:31:16;8.43;;;4.00;;
13866;SDS011;7003;46.982;15.248;2023-02-01T00:33:43;3.23;;;2.93;;
13866;SDS011;7003;46.982;15.248;2023-02-01T00:36:13;5.50;;;3.13;;
13866;SDS011;7003;46.982;15.248;2023-02-01T00:38:42;10.30;;;3.23;;
13866;SDS011;7003;46.982;15.248;2023-02-01T00:41:11;4.07;;;2.67;;
13866;SDS011;7003;46.982;15.248;2023-02-01T00:43:40;6.43;;;2.93;;
13866;SDS011;7003;46.982;15.248;2023-02-01T00:46:08;10.07;;;3.77;;
13866;SDS011;7003;46.982;15.248;2023-02-01T00:48:38;9.83;;;3.10;;
13866;SDS011;7003;46.982;15.248;2023-02-01T00:51:07;2.73;;;1.77;;
13866;SDS011;7003;46.982;15.248;2023-02-01T00:53:37;3.90;;;2.30;;
13866;SDS011;7003;46.982;15.248;2023-02-01T00:56:06;2.37;;;2.17;;
13866;SDS011;7003;46.982;15.248;2023-02-01T00:58:36;9.47;;;3.23;;
13866;SDS011;7003;46.982;15.248;2023-02-01T01:01:07;2.53;;;2.10;;
13866;SDS011;7003;46.982;15.248;2023-02-01T01:03:44;5.47;;;2.10;;
13866;SDS011;7003;46.982;15.248;2023-02-01T01:06:19;6.20;;;3.40;;
13866;SDS011;7003;46.982;15.248;2023-02-01T01:08:52;7.17;;;2.80;;
13866;SDS011;7003;46.982;15.248;2023-02-01T01:11:27;3.50;;;1.77;;
13866;SDS011;7003;46.982;15.248;2023-02-01T01:14:15;1.70;;;1.30;;
13866;SDS011;7003;46.982;15.248;2023-02-01T01:16:47;10.57;;;2.33;;
13866;SDS011;7003;46.982;15.248;2023-02-01T01:19:22;1.37;;;1.33;;
13866;SDS011;7003;46.982;15.248;2023-02-01T01:21:55;0.87;;;0.70;;
13866;SDS011;7003;46.982;15.248;2023-02-01T01:24:27;2.53;;;1.80;;
13866;SDS011;7003;46.982;15.248;2023-02-01T01:26:58;3.47;;;2.27;;
13866;SDS011;7003;46.982;15.248;2023-02-01T01:29:29;4.00;;;2.10;;
13866;SDS011;7003;46.982;15.248;2023-02-01T01:31:58;4.13;;;1.30;;
13866;SDS011;7003;46.982;15.248;2023-02-01T01:34:34;1.43;;;1.33;;
13866;SDS011;7003;46.982;15.248;2023-02-01T01:37:02;2.13;;;1.73;;
13866;SDS011;7003;46.982;15.248;2023-02-01T01:39:32;5.43;;;1.97;;
13866;SDS011;7003;46.982;15.248;2023-02-01T01:42:09;1.90;;;1.67;;
13866;SDS011;7003;46.982;15.248;2023-02-01T01:44:59;3.20;;;2.87;;
13866;SDS011;7003;46.982;15.248;2023-02-01T01:47:37;2.60;;;2.00;;
13866;SDS011;7003;46.982;15.248;2023-02-01T01:50:12;3.20;;;1.60;;
13866;SDS011;7003;46.982;15.248;2023-02-01T01:52:43;0.90;;;0.90;;
13866;SDS011;7003;46.982;15.248;2023-02-01T01:55:18;1.80;;;1.13;;
13866;SDS011;7003;46.982;15.248;2023-02-01T01:57:51;1.67;;;1.30;;
13866;SDS011;7003;46.982;15.248;2023-02-01T02:00:24;2.13;;;1.67;;
13866;SDS011;7003;46.982;15.248;2023-02-01T02:02:53;1.37;;;1.17;;
13866;SDS011;7003;46.982;15.248;2023-02-01T02:05:27;3.63;;;1.20;;
13866;SDS011;7003;46.982;15.248;2023-02-01T02:07:56;1.03;;;0.83;;
13866;SDS011;7003;46.982;15.248;2023-02-01T02:10:27;2.67;;;1.93;;
13866;SDS011;7003;46.982;15.248;2023-02-01T02:13:13;1.87;;;1.67;;
13866;SDS011;7003;46.982;15.248;2023-02-01T02:15:43;2.93;;;1.77;;
13866;SDS011;7003;46.982;15.248;2023-02-01T02:18:19;2.13;;;1.70;;
13866;SDS011;7003;46.982;15.248;2023-02-01T02:21:09;1.60;;;1.47;;
13866;SDS011;7003;46.982;15.248;2023-02-01T02:23:53;2.80;;;1.73;;
13866;SDS011;7003;46.982;15.248;2023-02-01T02:26:48;1.97;;;1.27;;
13866;SDS011;7003;46.982;15.248;2023-02-01T02:36:01;2.30;;;2.03;;
13866;SDS011;7003;46.982;15.248;2023-02-01T02:38:40;1.63;;;1.40;;
13866;SDS011;7003;46.982;15.248;2023-02-01T02:41:15;1.50;;;1.40;;
13866;SDS011;7003;46.982;15.248;2023-02-01T02:44:05;1.60;;;0.97;;
13866;SDS011;7003;46.982;15.248;2023-02-01T02:46:57;0.60;;;0.60;;
13866;SDS011;7003;46.982;15.248;2023-02-01T02:49:49;1.10;;;1.10;;
13866;SDS011;7003;46.982;15.248;2023-02-01T02:52:45;3.20;;;0.93;;
13866;SDS011;7003;46.982;15.248;2023-02-01T02:55:35;1.93;;;1.13;;
13866;SDS011;7003;46.982;15.248;2023-02-01T02:58:06;2.10;;;1.53;;
13866;SDS011;7003;46.982;15.248;2023-02-01T03:00:52;1.50;;;1.40;;
13866;SDS011;7003;46.982;15.248;2023-02-01T03:03:39;2.27;;;1.33;;
13866;SDS011;7003;46.982;15.248;2023-02-01T03:06:24;0.87;;;0.50;;
13866;SDS011;7003;46.982;15.248;2023-02-01T03:08:56;1.70;;;1.13;;
13866;SDS011;7003;46.982;15.248;2023-02-01T03:11:28;1.50;;;0.67;;
13866;SDS011;7003;46.982;15.248;2023-02-01T03:14:12;0.47;;;0.40;;
13866;SDS011;7003;46.982;15.248;2023-02-01T03:16:46;0.47;;;0.47;;
13866;SDS011;7003;46.982;15.248;2023-02-01T03:19:19;3.30;;;1.90;;
13866;SDS011;7003;46.982;15.248;2023-02-01T03:21:50;0.83;;;0.83;;
13866;SDS011;7003;46.982;15.248;2023-02-01T03:24:23;0.70;;;0.60;;
13866;SDS011;7003;46.982;15.248;2023-02-01T03:27:02;1.83;;;1.57;;
13866;SDS011;7003;46.982;15.248;2023-02-01T03:29:37;0.90;;;0.83;;
13866;SDS011;7003;46.982;15.248;2023-02-01T03:32:07;0.67;;;0.67;;
13866;SDS011;7003;46.982;15.248;2023-02-01T03:34:36;1.30;;;0.87;;
13866;SDS011;7003;46.982;15.248;2023-02-01T03:37:04;1.33;;;1.30;;
13866;SDS011;7003;46.982;15.248;2023-02-01T03:39:38;0.43;;;0.43;;
13866;SDS011;7003;46.982;15.248;2023-02-01T03:42:12;0.50;;;0.43;;
13866;SDS011;7003;46.982;15.248;2023-02-01T03:44:46;0.83;;;0.83;;
13866;SDS011;7003;46.982;15.248;2023-02-01T03:47:18;0.47;;;0.47;;
13866;SDS011;7003;46.982;15.248;2023-02-01T03:49:52;2.07;;;1.03;;
13866;SDS011;7003;46.982;15.248;2023-02-01T03:52:23;3.03;;;0.80;;
13866;SDS011;7003;46.982;15.248;2023-02-01T03:54:57;0.57;;;0.57;;
13866;SDS011;7003;46.982;15.248;2023-02-01T03:57:26;3.60;;;2.00;;
13866;SDS011;7003;46.982;15.248;2023-02-01T04:00:04;0.77;;;0.77;;
13866;SDS011;7003;46.982;15.248;2023-02-01T04:02:35;1.57;;;1.07;;
13866;SDS011;7003;46.982;15.248;2023-02-01T04:05:05;1.80;;;1.67;;
13866;SDS011;7003;46.982;15.248;2023-02-01T04:07:33;2.40;;;1.87;;
13866;SDS011;7003;46.982;15.248;2023-02-01T04:10:04;0.73;;;0.63;;
13866;SDS011;7003;46.982;15.248;2023-02-01T04:12:34;0.97;;;0.93;;
13866;SDS011;7003;46.982;15.248;2023-02-01T04:15:02;2.43;;;1.90;;
13866;SDS011;7003;46.982;15.248;2023-02-01T04:17:29;1.67;;;1.57;;
13866;SDS011;7003;46.982;15.248;2023-02-01T04:20:00;2.03;;;0.87;;
13866;SDS011;7003;46.982;15.248;2023-02-01T04:22:27;2.03;;;1.37;;
13866;SDS011;7003;46.982;15.248;2023-02-01T04:24:55;1.63;;;1.53;;
13866;SDS011;7003;46.982;15.248;2023-02-01T04:27:23;1.90;;;1.20;;
13866;SDS011;7003;46.982;15.248;2023-02-01T04:29:52;9.10;;;1.30;;
13866;SDS011;7003;46.982;15.248;2023-02-01T04:32:23;2.07;;;1.40;;
13866;SDS011;7003;46.982;15.248;2023-02-01T04:34:50;2.03;;;1.20;;
13866;SDS011;7003;46.982;15.248;2023-02-01T04:37:19;1.50;;;1.40;;
13866;SDS011;7003;46.982;15.248;2023-02-01T04:39:49;1.77;;;1.50;;
13866;SDS011;7003;46.982;15.248;2023-02-01T04:42:16;1.37;;;1.27;;
13866;SDS011;7003;46.982;15.248;2023-02-01T04:44:45;1.33;;;1.17;;
13866;SDS011;7003;46.982;15.248;2023-02-01T04:47:12;0.83;;;0.83;;
13866;SDS011;7003;46.982;15.248;2023-02-01T04:49:40;3.53;;;1.43;;
13866;SDS011;7003;46.982;15.248;2023-02-01T04:52:07;4.10;;;2.20;;
13866;SDS011;7003;46.982;15.248;2023-02-01T04:54:34;3.40;;;1.17;;
13866;SDS011;7003;46.982;15.248;2023-02-01T04:57:01;1.83;;;1.73;;
13866;SDS011;7003;46.982;15.248;2023-02-01T04:59:31;3.37;;;1.83;;
13866;SDS011;7003;46.982;15.248;2023-02-01T05:02:01;2.03;;;1.87;;
13866;SDS011;7003;46.982;15.248;2023-02-01T05:04:31;4.03;;;1.70;;
13866;SDS011;7003;46.982;15.248;2023-02-01T05:07:00;2.30;;;1.60;;
13866;SDS011;7003;46.982;15.248;2023-02-01T05:09:27;1.93;;;1.77;;
13866;SDS011;7003;46.982;15.248;2023-02-01T05:11:54;3.40;;;2.10;;
13866;SDS011;7003;46.982;15.248;2023-02-01T05:14:42;1.73;;;1.43;;
13866;SDS011;7003;46.982;15.248;2023-02-01T05:17:11;3.40;;;1.40;;
13866;SDS011;7003;46.982;15.248;2023-02-01T05:19:38;2.23;;;1.87;;
13866;SDS011;7003;46.982;15.248;2023-02-01T05:22:07;2.10;;;1.50;;
13866;SDS011;7003;46.982;15.248;2023-02-01T05:24:34;3.63;;;2.00;;
13866;SDS011;7003;46.982;15.248;2023-02-01T05:27:01;2.43;;;2.23;;
13866;SDS011;7003;46.982;15.248;2023-02-01T05:29:31;4.00;;;1.63;;
13866;SDS011;7003;46.982;15.248;2023-02-01T05:31:58;1.37;;;0.83;;
13866;SDS011;7003;46.982;15.248;2023-02-01T05:34:27;2.27;;;1.50;;
13866;SDS011;7003;46.982;15.248;2023-02-01T05:36:54;1.87;;;1.77;;
13866;SDS011;7003;46.982;15.248;2023-02-01T05:39:24;0.90;;;0.83;;
13866;SDS011;7003;46.982;15.248;2023-02-01T05:41:51;4.57;;;1.33;;
13866;SDS011;7003;46.982;15.248;2023-02-01T05:44:18;1.40;;;1.30;;
13866;SDS011;7003;46.982;15.248;2023-02-01T05:46:47;5.70;;;2.40;;
13866;SDS011;7003;46.982;15.248;2023-02-01T05:49:17;1.97;;;1.80;;
13866;SDS011;7003;46.982;15.248;2023-02-01T05:51:48;0.80;;;0.80;;
13866;SDS011;7003;46.982;15.248;2023-02-01T05:54:15;1.60;;;1.10;;
13866;SDS011;7003;46.982;15.248;2023-02-01T05:56:43;3.90;;;1.23;;
13866;SDS011;7003;46.982;15.248;2023-02-01T05:59:10;3.37;;;1.67;;
13866;SDS011;7003;46.982;15.248;2023-02-01T06:01:40;0.93;;;0.87;;
13866;SDS011;7003;46.982;15.248;2023-02-01T06:04:07;8.47;;;2.47;;
13866;SDS011;7003;46.982;15.248;2023-02-01T06:06:35;3.67;;;2.00;;
13866;SDS011;7003;46.982;15.248;2023-02-01T06:09:04;5.37;;;2.63;;
13866;SDS011;7003;46.982;15.248;2023-02-01T06:11:35;2.00;;;1.27;;
13866;SDS011;7003;46.982;15.248;2023-02-01T06:14:04;1.20;;;1.10;;
13866;SDS011;7003;46.982;15.248;2023-02-01T06:16:33;0.87;;;0.87;;
13866;SDS011;7003;46.982;15.248;2023-02-01T06:19:02;1.93;;;1.70;;
13866;SDS011;7003;46.982;15.248;2023-02-01T06:21:30;1.80;;;1.60;;
13866;SDS011;7003;46.982;15.248;2023-02-01T06:24:02;4.57;;;3.57;;
13866;SDS011;7003;46.982;15.248;2023-02-01T06:26:32;6.43;;;3.30;;
13866;SDS011;7003;46.982;15.248;2023-02-01T06:29:01;1.97;;;1.80;;
13866;SDS011;7003;46.982;15.248;2023-02-01T06:31:32;2.37;;;1.13;;
13866;SDS011;7003;46.982;15.248;2023-02-01T06:34:02;18.50;;;16.47;;
13866;SDS011;7003;46.982;15.248;2023-02-01T06:36:33;13.23;;;11.87;;
13866;SDS011;7003;46.982;15.248;2023-02-01T06:39:04;8.53;;;7.73;;
13866;SDS011;7003;46.982;15.248;2023-02-01T06:41:34;13.83;;;12.40;;
13866;SDS011;7003;46.982;15.248;2023-02-01T06:44:03;9.97;;;8.07;;
13866;SDS011;7003;46.982;15.248;2023-02-01T06:46:32;5.80;;;4.30;;
13866;SDS011;7003;46.982;15.248;2023-02-01T06:49:06;4.53;;;4.13;;
13866;SDS011;7003;46.982;15.248;2023-02-01T06:51:36;2.40;;;2.00;;
13866;SDS011;7003;46.982;15.248;2023-02-01T06:54:08;4.60;;;2.67;;
13866;SDS011;7003;46.982;15.248;2023-02-01T06:56:37;5.20;;;2.50;;
13866;SDS011;7003;46.982;15.248;2023-02-01T06:59:07;2.37;;;2.23;;
13866;SDS011;7003;46.982;15.248;2023-02-01T07:01:36;3.73;;;3.10;;
13866;SDS011;7003;46.982;15.248;2023-02-01T07:04:09;1.47;;;1.27;;
13866;SDS011;7003;46.982;15.248;2023-02-01T07:06:42;2.07;;;1.83;;
13866;SDS011;7003;46.982;15.248;2023-02-01T07:09:14;3.63;;;2.27;;
13866;SDS011;7003;46.982;15.248;2023-02-01T07:11:43;2.83;;;2.27;;
13866;SDS011;7003;46.982;15.248;2023-02-01T07:14:13;1.20;;;1.10;;
13866;SDS011;7003;46.982;15.248;2023-02-01T07:16:46;3.17;;;2.20;;
13866;SDS011;7003;46.982;15.248;2023-02-01T07:19:15;4.37;;;3.27;;
13866;SDS011;7003;46.982;15.248;2023-02-01T07:21:45;5.97;;;3.07;;
13866;SDS011;7003;46.982;15.248;2023-02-01T07:24:17;6.83;;;5.43;;
13866;SDS011;7003;46.982;15.248;2023-02-01T07:26:48;6.70;;;5.00;;
13866;SDS011;7003;46.982;15.248;2023-02-01T07:29:22;4.87;;;2.80;;
13866;SDS011;7003;46.982;15.248;2023-02-01T07:31:54;11.07;;;3.97;;
13866;SDS011;7003;46.982;15.248;2023-02-01T07:34:24;3.13;;;2.70;;
13866;SDS011;7003;46.982;15.248;2023-02-01T07:36:55;4.93;;;3.17;;
13866;SDS011;7003;46.982;15.248;2023-02-01T07:39:30;4.23;;;2.93;;
13866;SDS011;7003;46.982;15.248;2023-02-01T07:42:02;4.57;;;3.17;;
13866;SDS011;7003;46.982;15.248;2023-02-01T07:44:37;2.30;;;2.10;;
13866;SDS011;7003;46.982;15.248;2023-02-01T07:47:07;2.53;;;2.33;;
13866;SDS011;7003;46.982;15.248;2023-02-01T07:49:37;3.73;;;3.17;;
13866;SDS011;7003;46.982;15.248;2023-02-01T07:52:06;2.50;;;2.30;;
13866;SDS011;7003;46.982;15.248;2023-02-01T07:54:39;5.40;;;4.87;;
13866;SDS011;7003;46.982;15.248;2023-02-01T07:57:09;14.00;;;7.17;;
13866;SDS011;7003;46.982;15.248;2023-02-01T07:59:48;3.17;;;2.60;;
13866;SDS011;7003;46.982;15.248;2023-02-01T08:02:33;4.83;;;3.33;;
13866;SDS011;7003;46.982;15.248;2023-02-01T08:05:05;9.00;;;6.80;;
13866;SDS011;7003;46.982;15.248;2023-02-01T08:07:36;9.60;;;4.87;;
13866;SDS011;7003;46.982;15.248;2023-02-01T08:10:08;5.90;;;5.00;;
13866;SDS011;7003;46.982;15.248;2023-02-01T08:12:38;6.50;;;4.37;;
13866;SDS011;7003;46.982;15.248;2023-02-01T08:15:09;14.20;;;5.87;;
13866;SDS011;7003;46.982;15.248;2023-02-01T08:17:39;10.13;;;5.23;;
13866;SDS011;7003;46.982;15.248;2023-02-01T08:20:18;4.37;;;4.00;;
13866;SDS011;7003;46.982;15.248;2023-02-01T08:22:50;6.40;;;5.23;;
13866;SDS011;7003;46.982;15.248;2023-02-01T08:25:24;7.67;;;5.00;;
13866;SDS011;7003;46.982;15.248;2023-02-01T08:27:55;6.60;;;4.13;;
13866;SDS011;7003;46.982;15.248;2023-02-01T08:30:24;6.53;;;5.03;;
13866;SDS011;7003;46.982;15.248;2023-02-01T08:32:55;5.67;;;4.83;;
13866;SDS011;7003;46.982;15.248;2023-02-01T08:35:24;4.60;;;4.20;;
13866;SDS011;7003;46.982;15.248;2023-02-01T08:37:52;7.03;;;5.37;;
13866;SDS011;7003;46.982;15.248;2023-02-01T08:40:20;4.87;;;4.43;;
13866;SDS011;7003;46.982;15.248;2023-02-01T08:42:52;7.03;;;5.53;;
13866;SDS011;7003;46.982;15.248;2023-02-01T08:45:22;8.07;;;7.27;;
13866;SDS011;7003;46.982;15.248;2023-02-01T08:47:52;10.37;;;8.47;;
13866;SDS011;7003;46.982;15.248;2023-02-01T08:50:23;9.37;;;8.50;;
13866;SDS011;7003;46.982;15.248;2023-02-01T08:52:55;10.00;;;6.97;;
13866;SDS011;7003;46.982;15.248;2023-02-01T08:55:23;10.90;;;7.20;;
13866;SDS011;7003;46.982;15.248;2023-02-01T08:57:56;7.30;;;6.27;;
13866;SDS011;7003;46.982;15.248;2023-02-01T09:00:24;6.97;;;5.73;;
13866;SDS011;7003;46.982;15.248;2023-02-01T09:02:55;5.83;;;5.13;;
13866;SDS011;7003;46.982;15.248;2023-02-01T09:05:23;15.77;;;7.07;;
13866;SDS011;7003;46.982;15.248;2023-02-01T09:07:52;7.37;;;6.63;;
13866;SDS011;7003;46.982;15.248;2023-02-01T09:10:22;9.70;;;5.90;;
13866;SDS011;7003;46.982;15.248;2023-02-01T09:12:50;12.33;;;8.80;;
13866;SDS011;7003;46.982;15.248;2023-02-01T09:15:20;10.40;;;7.23;;
13866;SDS011;7003;46.982;15.248;2023-02-01T09:17:51;11.67;;;5.50;;
13866;SDS011;7003;46.982;15.248;2023-02-01T09:20:19;5.27;;;4.27;;
13866;SDS011;7003;46.982;15.248;2023-02-01T09:22:50;6.37;;;3.37;;
13866;SDS011;7003;46.982;15.248;2023-02-01T09:25:20;3.80;;;3.17;;
13866;SDS011;7003;46.982;15.248;2023-02-01T09:27:48;7.07;;;3.87;;
13866;SDS011;7003;46.982;15.248;2023-02-01T09:30:16;6.00;;;4.47;;
13866;SDS011;7003;46.982;15.248;2023-02-01T09:32:45;3.40;;;2.67;;
13866;SDS011;7003;46.982;15.248;2023-02-01T09:35:13;4.17;;;3.07;;
13866;SDS011;7003;46.982;15.248;2023-02-01T09:37:41;2.93;;;2.50;;
13866;SDS011;7003;46.982;15.248;2023-02-01T09:40:12;5.63;;;3.27;;
13866;SDS011;7003;46.982;15.248;2023-02-01T09:42:45;6.57;;;3.13;;
13866;SDS011;7003;46.982;15.248;2023-02-01T09:45:44;4.20;;;2.80;;
13866;SDS011;7003;46.982;15.248;2023-02-01T09:48:20;2.13;;;1.73;;
13866;SDS011;7003;46.982;15.248;2023-02-01T09:50:52;6.67;;;2.47;;
13866;SDS011;7003;46.982;15.248;2023-02-01T09:53:24;4.77;;;2.00;;
13866;SDS011;7003;46.982;15.248;2023-02-01T09:55:55;3.20;;;1.87;;
13866;SDS011;7003;46.982;15.248;2023-02-01T09:58:30;2.57;;;1.87;;
13866;SDS011;7003;46.982;15.248;2023-02-01T10:01:03;12.63;;;7.63;;
13866;SDS011;7003;46.982;15.248;2023-02-01T10:03:39;12.10;;;8.13;;
13866;SDS011;7003;46.982;15.248;2023-02-01T10:06:22;8.93;;;6.47;;
13866;SDS011;7003;46.982;15.248;2023-02-01T10:09:01;3.63;;;3.33;;
13866;SDS011;7003;46.982;15.248;2023-02-01T10:11:39;6.43;;;2.37;;
13866;SDS011;7003;46.982;15.248;2023-02-01T10:14:31;3.17;;;1.90;;
13866;SDS011;7003;46.982;15.248;2023-02-01T10:17:12;1.87;;;1.73;;
13866;SDS011;7003;46.982;15.248;2023-02-01T10:19:56;13.80;;;7.23;;
13866;SDS011;7003;46.982;15.248;2023-02-01T10:22:35;7.63;;;4.93;;
13866;SDS011;7003;46.982;15.248;2023-02-01T10:25:12;10.90;;;4.57;;
13866;SDS011;7003;46.982;15.248;2023-02-01T10:27:48;10.63;;;4.60;;
13866;SDS011;7003;46.982;15.248;2023-02-01T10:30:18;11.48;;;7.03;;
13866;SDS011;7003;46.982;15.248;2023-02-01T10:32:48;8.00;;;5.40;;
13866;SDS011;7003;46.982;15.248;2023-02-01T10:35:24;9.07;;;4.60;;
13866;SDS011;7003;46.982;15.248;2023-02-01T10:37:58;6.05;;;3.45;;
13866;SDS011;7003;46.982;15.248;2023-02-01T10:40:29;3.60;;;2.40;;
13866;SDS011;7003;46.982;15.248;2023-02-01T10:43:00;5.65;;;3.97;;
13866;SDS011;7003;46.982;15.248;2023-02-01T10:45:29;4.78;;;3.35;;
13866;SDS011;7003;46.982;15.248;2023-02-01T10:47:59;4.75;;;3.22;;
13866;SDS011;7003;46.982;15.248;2023-02-01T10:50:33;6.47;;;3.40;;
13866;SDS011;7003;46.982;15.248;2023-02-01T10:53:10;2.72;;;2.53;;
13866;SDS011;7003;46.982;15.248;2023-02-01T10:55:47;2.65;;;1.77;;
13866;SDS011;7003;46.982;15.248;2023-02-01T10:58:17;3.13;;;2.08;;
13866;SDS011;7003;46.982;15.248;2023-02-01T11:00:48;3.78;;;2.35;;
13866;SDS011;7003;46.982;15.248;2023-02-01T11:03:30;3.10;;;2.00;;
13866;SDS011;7003;46.982;15.248;2023-02-01T11:06:02;2.60;;;2.00;;
13866;SDS011;7003;46.982;15.248;2023-02-01T11:08:43;2.83;;;1.00;;
13866;SDS011;7003;46.982;15.248;2023-02-01T11:11:14;2.22;;;1.40;;
13866;SDS011;7003;46.982;15.248;2023-02-01T11:13:44;2.10;;;1.48;;
13866;SDS011;7003;46.982;15.248;2023-02-01T11:16:23;2.85;;;2.30;;
13866;SDS011;7003;46.982;15.248;2023-02-01T11:18:58;2.55;;;2.25;;
13866;SDS011;7003;46.982;15.248;2023-02-01T11:21:28;2.90;;;2.53;;
13866;SDS011;7003;46.982;15.248;2023-02-01T11:23:56;6.97;;;3.38;;
13866;SDS011;7003;46.982;15.248;2023-02-01T11:26:29;4.20;;;2.28;;
13866;SDS011;7003;46.982;15.248;2023-02-01T11:28:59;5.85;;;2.33;;
13866;SDS011;7003;46.982;15.248;2023-02-01T11:31:31;3.63;;;1.88;;
13866;SDS011;7003;46.982;15.248;2023-02-01T11:34:05;1.20;;;1.10;;
13866;SDS011;7003;46.982;15.248;2023-02-01T11:36:38;1.88;;;0.75;;
13866;SDS011;7003;46.982;15.248;2023-02-01T11:39:15;2.13;;;1.60;;
13866;SDS011;7003;46.982;15.248;2023-02-01T11:41:56;0.28;;;0.28;;
13866;SDS011;7003;46.982;15.248;2023-02-01T11:44:33;0.17;;;0.17;;
13866;SDS011;7003;46.982;15.248;2023-02-01T11:47:22;0.40;;;0.40;;
13866;SDS011;7003;46.982;15.248;2023-02-01T11:49:52;0.20;;;0.20;;
13866;SDS011;7003;46.982;15.248;2023-02-01T11:52:34;0.40;;;0.40;;
13866;SDS011;7003;46.982;15.248;2023-02-01T11:55:15;0.05;;;0.05;;
13866;SDS011;7003;46.982;15.248;2023-02-01T11:57:58;0.15;;;0.15;;
13866;SDS011;7003;46.982;15.248;2023-02-01T12:00:36;0.63;;;0.17;;
13866;SDS011;7003;46.982;15.248;2023-02-01T12:03:27;0.10;;;0.10;;
13866;SDS011;7003;46.982;15.248;2023-02-01T12:06:12;0.47;;;0.45;;
13866;SDS011;7003;46.982;15.248;2023-02-01T12:08:56;0.10;;;0.10;;
13866;SDS011;7003;46.982;15.248;2023-02-01T12:11:41;0.10;;;0.10;;
13866;SDS011;7003;46.982;15.248;2023-02-01T12:14:22;0.20;;;0.20;;
13866;SDS011;7003;46.982;15.248;2023-02-01T12:17:06;0.47;;;0.20;;
13866;SDS011;7003;46.982;15.248;2023-02-01T12:19:53;0.00;;;0.00;;
13866;SDS011;7003;46.982;15.248;2023-02-01T12:22:34;1.00;;;0.43;;
13866;SDS011;7003;46.982;15.248;2023-02-01T12:25:26;0.08;;;0.08;;
13866;SDS011;7003;46.982;15.248;2023-02-01T12:30:59;0.03;;;0.03;;
13866;SDS011;7003;46.982;15.248;2023-02-01T12:33:42;0.10;;;0.10;;
13866;SDS011;7003;46.982;15.248;2023-02-01T12:36:25;0.10;;;0.10;;
13866;SDS011;7003;46.982;15.248;2023-02-01T12:39:03;2.35;;;0.28;;
13866;SDS011;7003;46.982;15.248;2023-02-01T12:41:50;0.22;;;0.22;;
13866;SDS011;7003;46.982;15.248;2023-02-01T12:47:20;0.20;;;0.20;;
13866;SDS011;7003;46.982;15.248;2023-02-01T12:49:54;0.20;;;0.20;;
13866;SDS011;7003;46.982;15.248;2023-02-01T12:52:32;0.25;;;0.25;;
13866;SDS011;7003;46.982;15.248;2023-02-01T12:55:07;0.10;;;0.10;;
13866;SDS011;7003;46.982;15.248;2023-02-01T12:57:47;0.52;;;0.40;;
13866;SDS011;7003;46.982;15.248;2023-02-01T13:00:23;0.65;;;0.32;;
13866;SDS011;7003;46.982;15.248;2023-02-01T13:03:03;0.30;;;0.30;;
13866;SDS011;7003;46.982;15.248;2023-02-01T13:08:32;0.20;;;0.20;;
13866;SDS011;7003;46.982;15.248;2023-02-01T13:11:09;0.15;;;0.15;;
13866;SDS011;7003;46.982;15.248;2023-02-01T13:13:48;0.20;;;0.20;;
13866;SDS011;7003;46.982;15.248;2023-02-01T13:16:26;0.63;;;0.30;;
13866;SDS011;7003;46.982;15.248;2023-02-01T13:19:03;0.35;;;0.35;;
13866;SDS011;7003;46.982;15.248;2023-02-01T13:21:39;0.10;;;0.10;;
13866;SDS011;7003;46.982;15.248;2023-02-01T13:24:15;0.20;;;0.20;;
13866;SDS011;7003;46.982;15.248;2023-02-01T13:26:57;0.50;;;0.50;;
13866;SDS011;7003;46.982;15.248;2023-02-01T13:29:27;0.70;;;0.17;;
13866;SDS011;7003;46.982;15.248;2023-02-01T13:32:02;0.25;;;0.25;;
13866;SDS011;7003;46.982;15.248;2023-02-01T13:34:47;0.25;;;0.25;;
13866;SDS011;7003;46.982;15.248;2023-02-01T13:37:58;0.30;;;0.30;;
13866;SDS011;7003;46.982;15.248;2023-02-01T13:40:55;1.23;;;0.35;;
13866;SDS011;7003;46.982;15.248;2023-02-01T13:43:38;0.40;;;0.30;;
13866;SDS011;7003;46.982;15.248;2023-02-01T13:46:12;0.82;;;0.60;;
13866;SDS011;7003;46.982;15.248;2023-02-01T13:48:45;1.08;;;0.98;;
13866;SDS011;7003;46.982;15.248;2023-02-01T13:51:32;0.43;;;0.43;;
13866;SDS011;7003;46.982;15.248;2023-02-01T13:54:05;0.13;;;0.13;;
13866;SDS011;7003;46.982;15.248;2023-02-01T13:56:54;0.55;;;0.55;;
13866;SDS011;7003;46.982;15.248;2023-02-01T13:59:36;0.50;;;0.50;;
13866;SDS011;7003;46.982;15.248;2023-02-01T14:11:46;0.68;;;0.68;;
13866;SDS011;7003;46.982;15.248;2023-02-01T14:23:26;1.13;;;0.75;;
13866;SDS011;7003;46.982;15.248;2023-02-01T14:26:05;0.10;;;0.10;;
13866;SDS011;7003;46.982;15.248;2023-02-01T14:28:38;0.65;;;0.65;;
13866;SDS011;7003;46.982;15.248;2023-02-01T14:31:30;0.32;;;0.32;;
13866;SDS011;7003;46.982;15.248;2023-02-01T14:34:04;0.10;;;0.10;;
13866;SDS011;7003;46.982;15.248;2023-02-01T14:36:44;0.40;;;0.40;;
13866;SDS011;7003;46.982;15.248;2023-02-01T14:42:24;0.30;;;0.30;;
13866;SDS011;7003;46.982;15.248;2023-02-01T14:51:01;0.38;;;0.32;;
13866;SDS011;7003;46.982;15.248;2023-02-01T14:53:32;0.30;;;0.30;;
13866;SDS011;7003;46.982;15.248;2023-02-01T14:56:07;1.77;;;0.50;;
13866;SDS011;7003;46.982;15.248;2023-02-01T14:58:42;0.25;;;0.25;;
13866;SDS011;7003;46.982;15.248;2023-02-01T15:01:20;0.87;;;0.60;;
13866;SDS011;7003;46.982;15.248;2023-02-01T15:03:52;0.40;;;0.40;;
13866;SDS011;7003;46.982;15.248;2023-02-01T15:06:25;3.87;;;0.50;;
13866;SDS011;7003;46.982;15.248;2023-02-01T15:08:58;0.30;;;0.30;;
13866;SDS011;7003;46.982;15.248;2023-02-01T15:11:31;0.33;;;0.33;;
13866;SDS011;7003;46.982;15.248;2023-02-01T15:14:11;0.30;;;0.30;;
13866;SDS011;7003;46.982;15.248;2023-02-01T15:16:44;0.57;;;0.30;;
13866;SDS011;7003;46.982;15.248;2023-02-01T15:19:19;0.87;;;0.30;;
13866;SDS011;7003;46.982;15.248;2023-02-01T15:21:49;0.20;;;0.20;;
13866;SDS011;7003;46.982;15.248;2023-02-01T15:24:19;0.40;;;0.33;;
13866;SDS011;7003;46.982;15.248;2023-02-01T15:26:51;0.30;;;0.30;;
13866;SDS011;7003;46.982;15.248;2023-02-01T15:29:21;0.20;;;0.20;;
13866;SDS011;7003;46.982;15.248;2023-02-01T15:31:53;2.27;;;0.83;;
13866;SDS011;7003;46.982;15.248;2023-02-01T15:34:21;0.20;;;0.20;;
13866;SDS011;7003;46.982;15.248;2023-02-01T15:36:52;0.23;;;0.23;;
13866;SDS011;7003;46.982;15.248;2023-02-01T15:39:31;0.73;;;0.20;;
13866;SDS011;7003;46.982;15.248;2023-02-01T15:42:10;0.80;;;0.60;;
13866;SDS011;7003;46.982;15.248;2023-02-01T15:44:41;0.63;;;0.50;;
13866;SDS011;7003;46.982;15.248;2023-02-01T15:47:15;0.40;;;0.20;;
13866;SDS011;7003;46.982;15.248;2023-02-01T15:49:49;0.47;;;0.47;;
13866;SDS011;7003;46.982;15.248;2023-02-01T15:52:21;1.03;;;0.70;;
13866;SDS011;7003;46.982;15.248;2023-02-01T15:54:56;0.27;;;0.27;;
13866;SDS011;7003;46.982;15.248;2023-02-01T15:57:32;0.30;;;0.30;;
13866;SDS011;7003;46.982;15.248;2023-02-01T16:00:03;1.07;;;0.70;;
13866;SDS011;7003;46.982;15.248;2023-02-01T16:02:34;0.40;;;0.40;;
13866;SDS011;7003;46.982;15.248;2023-02-01T16:05:05;0.50;;;0.30;;
13866;SDS011;7003;46.982;15.248;2023-02-01T16:07:55;0.37;;;0.33;;